Time;durP1;ratioP1;P1;durP2;ratioP2;P2;SDS_P1;SDS_P2;PMS_P1;PMS_P2;Temp;Humidity;BMP_temperature;BMP_pressure;BME280_temperature;BME280_humidity;BME280_pressure;Samples;Min_cycle;Max_cycle;Signal;HPM_P1;HPM_P2
2022/11/12 01:49:02;;;;;;;27.02;10.73;;;;;;;8.63;85.18;102717.03;5870912;23;20627;-62
2022/11/12 01:51:52;;;;;;;22.42;9.70;;;;;;;8.56;86.10;102721.00;4971049;28;20048;-62
2022/11/12 01:54:41;;;;;;;78.20;29.45;;;;;;;8.55;86.25;102714.03;4926744;28;20090;-65
2022/11/12 01:57:37;;;;;;;29.73;11.30;;;;;;;8.45;86.20;102711.06;4957959;28;20764;-65
2022/11/12 02:00:23;;;;;;;22.02;10.75;;;;;;;8.40;86.93;102715.75;4975047;28;20043;-64
2022/11/12 02:03:17;;;;;;;41.20;18.10;;;;;;;8.31;86.82;102715.44;4958693;28;20080;-57
2022/11/12 02:06:08;;;;;;;24.05;12.02;;;;;;;8.25;87.32;102719.31;4975430;28;20051;-60
2022/11/12 02:08:55;;;;;;;20.40;9.98;;;;;;;8.23;87.53;102721.19;4976036;28;20097;-63
2022/11/12 02:11:42;;;;;;;21.70;9.25;;;;;;;8.20;87.42;102710.78;4964712;28;20047;-61
2022/11/12 02:14:30;;;;;;;20.77;9.10;;;;;;;8.26;87.56;102711.28;4961474;28;20051;-61
2022/11/12 02:17:16;;;;;;;31.65;15.98;;;;;;;8.40;87.05;102712.25;4954560;28;20210;-60
2022/11/12 02:20:04;;;;;;;30.63;15.07;;;;;;;8.54;85.85;102714.09;4947792;29;20044;-58
2022/11/12 02:22:50;;;;;;;34.20;14.85;;;;;;;8.63;84.69;102710.91;4939517;29;20119;-60
2022/11/12 02:25:37;;;;;;;22.85;12.07;;;;;;;8.73;84.27;102717.34;4944237;28;20437;-63
2022/11/12 02:28:24;;;;;;;21.48;11.18;;;;;;;8.80;83.79;102717.81;4961056;28;20062;-58
2022/11/12 02:31:11;;;;;;;47.72;18.67;;;;;;;8.73;83.44;102720.00;4955337;28;20073;-58
2022/11/12 02:33:58;;;;;;;24.08;10.60;;;;;;;8.55;83.66;102726.38;4962971;28;20039;-57
2022/11/12 02:36:44;;;;;;;22.92;10.77;;;;;;;8.61;83.90;102720.72;4968212;28;20500;-57
2022/11/12 02:39:32;;;;;;;26.90;11.07;;;;;;;8.64;83.87;102716.09;4952559;28;20071;-58
2022/11/12 02:42:19;;;;;;;24.02;10.57;;;;;;;8.57;83.27;102721.88;4957084;28;20045;-58
2022/11/12 02:45:05;;;;;;;27.27;12.00;;;;;;;8.68;82.96;102726.47;4960254;28;20041;-57
2022/11/12 02:47:52;;;;;;;22.52;11.05;;;;;;;8.61;83.14;102710.16;4954641;28;20396;-59
2022/11/12 02:50:39;;;;;;;18.13;8.50;;;;;;;8.45;83.76;102732.22;4954188;28;20126;-61
2022/11/12 02:53:26;;;;;;;14.27;7.75;;;;;;;8.55;83.78;102736.94;4937850;28;20051;-59
2022/11/12 02:56:12;;;;;;;24.73;11.02;;;;;;;8.52;83.97;102729.22;4953005;28;20062;-57
2022/11/12 02:58:59;;;;;;;46.42;19.88;;;;;;;8.68;83.21;102729.13;4969938;28;20102;-59
2022/11/12 03:01:46;;;;;;;18.15;9.15;;;;;;;8.69;82.69;102729.03;4959820;28;20049;-59
2022/11/12 03:04:33;;;;;;;22.08;9.88;;;;;;;8.58;83.50;102726.19;4969305;28;20133;-58
2022/11/12 03:07:19;;;;;;;17.77;8.38;;;;;;;8.50;83.59;102717.88;4968617;28;20094;-59
2022/11/12 03:10:06;;;;;;;26.27;12.82;;;;;;;8.40;83.65;102729.00;4950905;28;20085;-58
2022/11/12 03:12:56;;;;;;;16.65;7.90;;;;;;;8.20;84.43;102724.00;4969310;28;20054;-59
2022/11/12 03:15:42;;;;;;;22.20;8.15;;;;;;;7.98;85.16;102719.97;4959873;28;20118;-57
2022/11/12 03:18:30;;;;;;;17.15;7.75;;;;;;;7.85;86.11;102721.63;4938933;28;20043;-57
2022/11/12 03:21:17;;;;;;;19.00;8.05;;;;;;;7.74;86.50;102716.09;4954506;28;20122;-57
2022/11/12 03:24:04;;;;;;;15.35;8.18;;;;;;;7.59;87.30;102715.19;4953335;28;20563;-57
2022/11/12 03:26:50;;;;;;;14.88;7.88;;;;;;;7.48;87.94;102713.16;4968925;28;20070;-57
2022/11/12 03:29:37;;;;;;;18.15;9.15;;;;;;;7.41;88.35;102709.97;4954375;28;20396;-57
2022/11/12 03:32:24;;;;;;;16.48;7.60;;;;;;;7.40;88.56;102704.78;4968551;28;20121;-57
2022/11/12 03:35:10;;;;;;;15.80;7.65;;;;;;;7.34;88.45;102705.13;4967641;28;20031;-59
2022/11/12 03:37:57;;;;;;;15.50;7.60;;;;;;;7.36;88.49;102703.25;4966756;28;20587;-58
2022/11/12 03:40:44;;;;;;;16.85;8.23;;;;;;;7.27;88.08;102692.25;4943774;28;20039;-58
2022/11/12 03:43:30;;;;;;;19.08;8.55;;;;;;;7.25;88.80;102698.56;4953291;28;20078;-58
2022/11/12 03:46:17;;;;;;;16.17;7.95;;;;;;;7.25;88.65;102696.78;4962829;28;20090;-58
2022/11/12 03:49:04;;;;;;;17.02;7.65;;;;;;;7.25;88.34;102696.78;4932829;28;20065;-58
2022/11/12 03:51:50;;;;;;;15.38;7.30;;;;;;;7.23;88.65;102701.28;4940295;29;20042;-58
2022/11/12 03:54:38;;;;;;;15.00;7.10;;;;;;;7.21;88.83;102689.97;4963100;28;20063;-58
2022/11/12 03:57:24;;;;;;;15.75;7.47;;;;;;;7.21;87.79;102686.47;4953460;29;20044;-59
2022/11/12 04:00:12;;;;;;;14.63;8.15;;;;;;;7.17;88.17;102687.56;4947978;28;20054;-58
2022/11/12 04:02:59;;;;;;;189.07;98.95;;;;;;;7.28;88.34;102688.69;4969030;28;20050;-59
2022/11/12 04:08:54;;;;;;;29.75;15.73;;;;;;;7.32;88.04;102689.38;4954559;29;20058;-58
2022/11/12 04:11:40;;;;;;;22.38;11.15;;;;;;;7.36;88.03;102695.34;4951631;28;20043;-59
2022/11/12 04:14:27;;;;;;;20.60;10.20;;;;;;;7.27;87.78;102688.78;4953602;29;20039;-59
2022/11/12 04:23:27;;;;;;;18.83;7.30;;;;;;;7.09;87.90;102677.44;4954906;28;20063;-59
2022/11/12 04:26:29;;;;;;;13.88;7.32;;;;;;;7.08;88.56;102678.38;4967005;28;20069;-59
2022/11/12 04:32:24;;;;;;;17.70;8.00;;;;;;;7.02;88.78;102668.16;4954704;29;20039;-59
2022/11/12 04:35:11;;;;;;;14.85;7.45;;;;;;;7.02;88.71;102668.16;4955032;28;20576;-59
2022/11/12 04:37:58;;;;;;;14.18;7.57;;;;;;;7.00;88.86;102672.66;4954563;28;20047;-58
2022/11/12 04:46:58;;;;;;;17.02;7.68;;;;;;;6.96;88.93;102661.41;4934852;29;20047;-59
2022/11/12 04:49:45;;;;;;;16.63;8.13;;;;;;;7.03;88.86;102657.50;4941525;29;20055;-58
2022/11/12 04:52:32;;;;;;;19.88;8.88;;;;;;;6.98;89.26;102670.09;4954653;28;20127;-58
2022/11/12 04:55:19;;;;;;;17.15;8.70;;;;;;;6.99;89.58;102661.25;4953313;29;20043;-59
2022/11/12 04:58:06;;;;;;;17.55;9.27;;;;;;;6.92;89.82;102663.38;4953695;28;20058;-58
2022/11/12 05:00:53;;;;;;;20.00;9.80;;;;;;;6.89;90.23;102668.84;4953671;28;20082;-60
2022/11/12 05:03:40;;;;;;;22.70;10.15;;;;;;;6.98;89.91;102663.97;4954785;28;20066;-60
2022/11/12 05:06:57;;;;;;;21.50;10.43;;;;;;;6.94;90.70;102657.16;4953149;29;20049;-59
2022/11/12 05:09:33;;;;;;;25.30;11.00;;;;;;;6.92;90.03;102651.97;4954541;29;20119;-60
2022/11/12 05:12:19;;;;;;;26.60;11.27;;;;;;;6.91;90.03;102643.22;4953171;29;20052;-60
2022/11/12 05:15:07;;;;;;;23.80;11.52;;;;;;;6.96;89.91;102635.03;4953428;29;20122;-59
2022/11/12 05:17:53;;;;;;;25.98;11.65;;;;;;;6.87;90.73;102639.03;4940147;29;20098;-58
2022/11/12 05:20:40;;;;;;;25.02;10.60;;;;;;;6.90;90.64;102630.94;4954263;29;20051;-59
2022/11/12 05:23:27;;;;;;;25.30;10.50;;;;;;;6.96;90.37;102636.81;4940321;29;20035;-61
2022/11/12 05:26:13;;;;;;;22.20;10.05;;;;;;;6.87;90.70;102627.63;4953451;29;20035;-58
2022/11/12 05:29:00;;;;;;;19.50;9.65;;;;;;;6.86;90.92;102631.22;4954324;29;20039;-58
2022/11/12 05:31:48;;;;;;;19.83;9.95;;;;;;;6.89;90.67;102626.63;4954513;28;20523;-60
2022/11/12 05:34:35;;;;;;;19.65;8.70;;;;;;;6.88;90.57;102622.28;4953323;29;20118;-58
2022/11/12 05:37:21;;;;;;;19.52;9.10;;;;;;;6.89;90.90;102620.47;4952995;28;20048;-58
2022/11/12 05:40:08;;;;;;;25.73;9.52;;;;;;;6.81;91.13;102620.91;4954488;28;20043;-58
2022/11/12 05:42:55;;;;;;;20.05;9.05;;;;;;;6.76;91.02;102620.28;4956287;28;20051;-58
2022/11/12 05:45:42;;;;;;;17.02;8.90;;;;;;;6.71;91.67;102615.28;4957761;29;20039;-59
2022/11/12 05:48:29;;;;;;;16.77;8.95;;;;;;;6.73;92.02;102617.81;4957720;29;20070;-59
2022/11/12 05:51:16;;;;;;;20.08;9.00;;;;;;;6.72;92.09;102613.50;4957178;29;20511;-60
2022/11/12 05:54:03;;;;;;;19.33;8.70;;;;;;;6.73;92.44;102609.91;4957645;28;20127;-60
2022/11/12 05:56:52;;;;;;;18.38;8.77;;;;;;;6.81;91.90;102622.69;4957299;28;20141;-59
2022/11/12 05:59:39;;;;;;;16.90;8.90;;;;;;;6.72;92.23;102613.50;4957573;28;20063;-59
2022/11/12 06:02:25;;;;;;;20.15;8.68;;;;;;;6.80;91.85;102619.19;4956377;29;20054;-59
2022/11/12 06:05:13;;;;;;;16.02;8.30;;;;;;;6.70;92.42;102625.91;4942681;29;20055;-59
2022/11/12 06:08:00;;;;;;;17.95;8.40;;;;;;;6.76;92.01;102627.34;4956062;29;20065;-59
2022/11/12 06:10:48;;;;;;;18.48;8.20;;;;;;;6.75;92.20;102633.56;4957455;28;20047;-58
2022/11/12 06:13:35;;;;;;;19.58;9.25;;;;;;;6.76;91.95;102637.91;4957014;29;20047;-59
2022/11/12 06:16:22;;;;;;;17.38;8.43;;;;;;;6.77;91.58;102637.84;4955107;29;20035;-59
2022/11/12 06:19:08;;;;;;;17.23;8.68;;;;;;;6.66;92.11;102635.78;4956978;29;20043;-59
2022/11/12 06:21:56;;;;;;;21.40;8.93;;;;;;;6.69;92.52;102635.63;4957204;28;20509;-59
2022/11/12 06:24:42;;;;;;;17.48;8.55;;;;;;;6.58;92.59;102632.69;4955893;29;20047;-59
2022/11/12 06:27:29;;;;;;;19.30;8.48;;;;;;;6.68;92.46;102639.19;4957186;29;20043;-59
2022/11/12 06:30:16;;;;;;;17.83;9.05;;;;;;;6.56;93.03;102645.09;4955838;29;20047;-59
2022/11/12 06:33:03;;;;;;;16.73;8.85;;;;;;;6.63;92.50;102650.91;4957200;28;20138;-59
2022/11/12 06:35:56;;;;;;;21.27;9.07;;;;;;;6.66;92.34;102646.31;4955652;29;20048;-59
2022/11/12 06:38:44;;;;;;;15.93;8.95;;;;;;;6.59;92.21;102647.59;4956970;28;20135;-59
2022/11/12 06:41:30;;;;;;;16.65;8.55;;;;;;;6.68;91.92;102656.78;4955701;28;20053;-59
2022/11/12 06:44:17;;;;;;;18.27;8.10;;;;;;;6.72;91.58;102653.91;4969231;28;20058;-59
2022/11/12 06:47:08;;;;;;;20.05;9.05;;;;;;;6.58;92.21;102659.03;4956716;28;20062;-59
2022/11/12 06:49:55;;;;;;;19.15;9.48;;;;;;;6.60;92.13;102666.88;4909940;29;20055;-59
2022/11/12 06:52:41;;;;;;;19.45;9.70;;;;;;;6.60;92.35;102670.38;4936156;29;20506;-59
2022/11/12 06:55:28;;;;;;;21.45;8.77;;;;;;;6.62;92.35;102676.44;4937404;29;20040;-59
2022/11/12 06:58:16;;;;;;;19.48;9.48;;;;;;;6.65;92.54;102685.97;4937059;29;20046;-59
2022/11/12 07:01:13;;;;;;;21.83;9.15;;;;;;;6.67;91.78;102686.72;4936395;29;20139;-60
2022/11/12 07:04:00;;;;;;;15.82;8.50;;;;;;;6.63;92.72;102691.31;4937053;29;20497;-59
2022/11/12 07:06:46;;;;;;;18.63;8.65;;;;;;;6.68;91.92;102696.34;4935367;29;20524;-60
2022/11/12 07:09:33;;;;;;;21.73;9.20;;;;;;;6.63;91.82;102701.00;4948513;29;20404;-60
2022/11/12 07:12:19;;;;;;;18.40;9.50;;;;;;;6.51;92.71;102699.84;4955901;28;20051;-60
2022/11/12 07:15:06;;;;;;;20.83;9.77;;;;;;;6.59;92.03;102692.41;4955952;29;20512;-60
2022/11/12 07:17:53;;;;;;;16.75;8.80;;;;;;;6.67;91.93;102695.47;4955793;29;20103;-60
2022/11/12 07:20:39;;;;;;;21.90;9.23;;;;;;;6.70;92.27;102692.69;4955008;29;20320;-59
2022/11/12 07:23:27;;;;;;;16.98;8.88;;;;;;;6.70;92.48;102697.97;4968268;28;20043;-60
2022/11/12 07:26:17;;;;;;;19.67;9.18;;;;;;;6.71;92.09;102697.03;4956125;28;20047;-60
2022/11/12 07:29:06;;;;;;;19.63;8.35;;;;;;;6.82;91.67;102699.13;4954811;28;20083;-61
2022/11/12 07:31:52;;;;;;;22.13;9.15;;;;;;;6.85;91.63;102696.28;4955875;29;20053;-59
2022/11/12 07:34:39;;;;;;;21.17;9.60;;;;;;;6.94;90.93;102691.47;4955752;28;20051;-60
2022/11/12 07:37:25;;;;;;;18.33;8.88;;;;;;;6.93;90.89;102701.19;4954502;29;20047;-60
2022/11/12 07:40:12;;;;;;;21.50;9.38;;;;;;;6.90;91.60;102694.28;4955695;28;20070;-59
2022/11/12 07:42:59;;;;;;;21.08;9.10;;;;;;;7.05;90.80;102695.22;4941363;29;20055;-61
2022/11/12 07:45:45;;;;;;;22.60;9.60;;;;;;;7.16;90.52;102684.06;4955610;28;20057;-60
2022/11/12 07:48:32;;;;;;;22.17;8.98;;;;;;;7.17;89.92;102682.28;4955564;28;20047;-60
2022/11/12 07:51:22;;;;;;;20.05;8.52;;;;;;;7.25;89.61;102688.00;4955039;28;20090;-60
2022/11/12 07:54:08;;;;;;;20.73;9.32;;;;;;;7.23;90.34;102690.72;4955339;28;20051;-60
2022/11/12 07:56:55;;;;;;;18.08;9.10;;;;;;;7.24;90.21;102688.94;4955218;28;20130;-60
2022/11/12 07:59:42;;;;;;;20.05;9.57;;;;;;;7.40;89.95;102697.69;4955309;28;20042;-60
2022/11/12 08:02:31;;;;;;;22.50;9.35;;;;;;;7.33;88.05;102696.38;4955312;28;20047;-60
2022/11/12 08:05:18;;;;;;;21.08;9.30;;;;;;;7.47;88.32;102696.41;4966376;28;20070;-60
2022/11/12 08:08:06;;;;;;;20.38;9.00;;;;;;;7.54;88.61;102699.59;4954200;29;20366;-62
2022/11/12 08:10:55;;;;;;;46.75;22.35;;;;;;;7.64;88.49;102700.78;4953311;28;20051;-66
2022/11/12 08:13:42;;;;;;;36.75;19.15;;;;;;;7.88;87.37;102700.31;4934727;29;20051;-62
2022/11/12 08:16:29;;;;;;;32.85;15.05;;;;;;;7.98;86.32;102703.25;4954416;29;20050;-60
2022/11/12 08:19:15;;;;;;;20.73;11.00;;;;;;;8.03;85.32;102701.22;4954560;29;20527;-62
2022/11/12 08:22:02;;;;;;;55.90;22.58;;;;;;;8.10;84.64;102709.63;4953726;29;20505;-60
2022/11/12 08:24:49;;;;;;;45.95;22.85;;;;;;;8.19;84.75;102702.00;4954690;29;20139;-60
2022/11/12 08:27:35;;;;;;;28.42;13.73;;;;;;;8.18;84.82;102708.22;4954913;29;20130;-60
2022/11/12 08:30:22;;;;;;;24.33;10.05;;;;;;;8.31;84.16;102707.50;4954865;29;20055;-59
2022/11/12 08:33:09;;;;;;;21.33;9.15;;;;;;;8.41;83.02;102706.88;4955247;29;20466;-59
2022/11/12 08:35:56;;;;;;;21.70;9.20;;;;;;;8.31;83.57;102707.50;4953593;28;20071;-61
2022/11/12 08:38:44;;;;;;;21.13;9.43;;;;;;;8.42;82.43;102711.25;4954879;29;20039;-59
2022/11/12 08:41:31;;;;;;;40.67;12.90;;;;;;;8.29;83.32;102714.69;4954668;28;20055;-58
2022/11/12 08:44:17;;;;;;;19.30;9.27;;;;;;;8.11;83.19;102725.38;4955032;29;20043;-59
2022/11/12 08:47:04;;;;;;;19.70;8.95;;;;;;;8.22;83.36;102711.53;4954563;29;20043;-57
2022/11/12 08:49:50;;;;;;;19.58;8.50;;;;;;;8.14;83.93;102712.00;4954687;29;20054;-58
2022/11/12 08:52:37;;;;;;;20.00;8.93;;;;;;;8.14;84.54;102708.50;4954296;28;20058;-60
2022/11/12 08:55:24;;;;;;;23.75;10.00;;;;;;;8.21;83.95;102710.69;4951621;28;20058;-62
2022/11/12 08:58:10;;;;;;;19.08;9.55;;;;;;;8.29;83.50;102707.59;4938192;29;20094;-58
2022/11/12 09:01:04;;;;;;;17.70;9.20;;;;;;;8.38;83.60;102701.75;4953620;28;20386;-57
2022/11/12 09:03:50;;;;;;;18.85;8.80;;;;;;;8.39;82.43;102698.19;4934921;29;20056;-58
2022/11/12 09:06:37;;;;;;;19.42;8.73;;;;;;;8.45;82.26;102700.47;4953290;29;20043;-58
2022/11/12 09:09:24;;;;;;;21.17;9.10;;;;;;;8.52;82.37;102710.72;4953620;28;20047;-57
2022/11/12 09:12:17;;;;;;;18.80;9.20;;;;;;;8.67;81.35;102714.22;4948561;28;20054;-56
2022/11/12 09:15:06;;;;;;;21.90;9.77;;;;;;;8.66;81.86;102716.00;4953282;28;20059;-55
2022/11/12 09:18:14;;;;;;;23.23;9.70;;;;;;;8.87;81.80;102713.00;4974870;28;20089;-56
2022/11/12 09:21:06;;;;;;;19.52;9.73;;;;;;;8.94;81.24;102717.81;4959959;28;20094;-56
2022/11/12 09:23:54;;;;;;;19.95;9.55;;;;;;;8.97;80.71;102714.97;4943225;28;20118;-55
2022/11/12 09:26:41;;;;;;;18.40;9.35;;;;;;;9.06;80.98;102700.31;4974030;28;20452;-56
2022/11/12 09:29:27;;;;;;;33.15;12.95;;;;;;;9.17;81.16;102700.50;4938791;29;20048;-54
2022/11/12 09:32:14;;;;;;;22.17;9.80;;;;;;;9.23;80.51;102705.38;4938646;29;20493;-57
2022/11/12 09:35:00;;;;;;;20.75;10.52;;;;;;;9.18;80.08;102696.88;4938296;29;20135;-53
2022/11/12 09:37:47;;;;;;;18.10;9.60;;;;;;;9.37;80.17;102687.78;4941427;29;20082;-57
2022/11/12 09:40:58;;;;;;;19.70;9.18;;;;;;;9.61;79.43;102694.13;4941698;29;20050;-57
2022/11/12 09:43:50;;;;;;;16.35;8.60;;;;;;;9.70;78.76;102690.03;4938157;29;20083;-57
2022/11/12 09:46:51;;;;;;;28.40;11.05;;;;;;;9.83;78.55;102700.66;4938379;29;20119;-60
2022/11/12 09:49:46;;;;;;;63.10;24.05;;;;;;;10.04;77.74;102702.84;4941830;29;20090;-58
2022/11/12 09:52:35;;;;;;;24.75;11.05;;;;;;;10.13;77.12;102710.19;4957236;29;20463;-60
2022/11/12 09:55:35;;;;;;;32.22;15.48;;;;;;;10.31;76.42;102711.59;4957023;29;20054;-57
2022/11/12 09:58:24;;;;;;;21.98;9.35;;;;;;;10.27;75.33;102709.25;4957045;29;20045;-57
2022/11/12 10:01:17;;;;;;;14.38;7.68;;;;;;;10.43;75.02;102707.28;4957162;28;20051;-57
2022/11/12 10:04:22;;;;;;;16.10;7.50;;;;;;;10.56;74.56;102701.97;4945641;29;20083;-57
2022/11/12 10:07:34;;;;;;;14.95;7.15;;;;;;;10.66;74.02;102696.88;4937242;28;20420;-57
2022/11/12 10:11:01;;;;;;;14.63;7.50;;;;;;;10.80;73.47;102693.25;4937787;29;20417;-58
2022/11/12 10:14:06;;;;;;;19.77;8.65;;;;;;;11.04;72.86;102691.53;4939052;29;20052;-57
2022/11/12 10:17:21;;;;;;;14.30;7.97;;;;;;;11.25;71.52;102689.13;4956661;29;20059;-57
2022/11/12 10:20:24;;;;;;;16.77;8.02;;;;;;;11.35;72.33;102686.69;4956742;29;20047;-58
2022/11/12 10:23:26;;;;;;;16.52;8.15;;;;;;;11.42;71.66;102690.56;4956902;28;20142;-57
2022/11/12 10:26:15;;;;;;;16.05;8.07;;;;;;;11.58;71.10;102681.47;4956788;28;20138;-58
2022/11/12 10:29:17;;;;;;;14.50;7.93;;;;;;;11.75;71.35;102685.53;4956305;28;20414;-57
2022/11/12 10:32:03;;;;;;;19.75;8.57;;;;;;;12.04;70.17;102684.25;4956855;28;20440;-58
2022/11/12 10:34:50;;;;;;;17.48;8.40;;;;;;;12.15;68.83;102682.56;4956363;28;20501;-58
2022/11/12 10:42:59;;;;;;;18.83;7.40;;;;;;;13.24;65.08;102671.31;5110359;27;20380;-58
2022/11/12 10:45:48;;;;;;;14.77;7.60;;;;;;;14.58;60.46;102673.50;5110586;28;20051;-58
2022/11/12 10:48:35;;;;;;;13.95;6.38;;;;;;;16.32;55.08;102671.19;5109314;28;20040;-58
2022/11/12 10:51:25;;;;;;;23.52;11.90;;;;;;;16.67;53.95;102667.81;5110227;28;20036;-59
2022/11/12 10:54:33;;;;;;;158.98;68.10;;;;;;;16.87;52.89;102667.78;5109147;28;20105;-59
2022/11/12 10:57:25;;;;;;;25.17;10.50;;;;;;;17.01;52.27;102661.91;5095819;28;20039;-61
2022/11/12 11:02:51;;;;;;;15.32;6.60;;;;;;;17.45;51.27;102654.00;5110742;27;20384;-56
2022/11/12 11:06:00;;;;;;;13.98;6.55;;;;;;;17.55;50.38;102647.69;5109997;28;20047;-55
2022/11/12 11:08:49;;;;;;;207.65;67.95;;;;;;;16.94;50.79;102644.75;5109960;28;20093;-55
2022/11/12 11:11:36;;;;;;;17.13;7.03;;;;;;;17.11;51.27;102635.03;5095516;28;20040;-55
2022/11/12 11:14:26;;;;;;;12.75;5.80;;;;;;;17.51;50.29;102640.97;5110192;28;20050;-53
2022/11/12 11:17:17;;;;;;;111.75;10.90;;;;;;;17.45;50.49;102639.75;5110197;28;20504;-65
2022/11/12 11:20:21;;;;;;;15.90;7.63;;;;;;;18.61;47.54;102642.25;5110430;28;20122;-67
2022/11/12 11:23:19;;;;;;;16.10;6.40;;;;;;;18.22;48.16;102638.16;5110272;28;20050;-66
2022/11/12 11:26:30;;;;;;;16.33;5.75;;;;;;;19.01;46.20;102637.19;5109328;28;20054;-67
2022/11/12 11:29:43;;;;;;;13.27;6.18;;;;;;;19.14;46.08;102635.72;5109993;28;20485;-67
2022/11/12 11:33:09;;;;;;;14.93;6.00;;;;;;;19.29;45.70;102635.91;5109765;28;20048;-68
2022/11/12 11:36:23;;;;;;;13.02;5.85;;;;;;;19.74;43.52;102639.19;5109750;28;20050;-66
2022/11/12 11:39:23;;;;;;;14.45;5.53;;;;;;;19.84;43.77;102639.00;5108368;28;20047;-70
2022/11/12 11:42:41;;;;;;;14.18;5.85;;;;;;;19.52;44.22;102641.50;5097303;28;20043;-70
2022/11/12 11:45:55;;;;;;;20.92;11.43;;;;;;;20.39;43.34;102627.47;5108510;28;20048;-68
2022/11/12 11:49:21;;;;;;;11.38;5.25;;;;;;;20.27;42.99;102631.53;5063803;28;20051;-67
2022/11/12 11:52:44;;;;;;;11.48;5.47;;;;;;;18.81;45.80;102616.00;5105016;28;20059;-67
2022/11/12 11:55:57;;;;;;;12.30;4.97;;;;;;;18.25;47.67;102620.06;5088917;28;20059;-67
2022/11/12 11:59:03;;;;;;;11.32;5.03;;;;;;;17.49;49.67;102618.81;5098693;28;20123;-67
2022/11/12 12:02:15;;;;;;;12.38;5.45;;;;;;;17.31;51.86;102621.50;5108257;28;20064;-67
2022/11/12 12:05:39;;;;;;;12.63;6.00;;;;;;;16.80;52.46;102611.19;5109012;28;20043;-67
2022/11/12 12:09:06;;;;;;;11.57;5.25;;;;;;;16.79;52.46;102609.53;5109310;28;20400;-65
2022/11/12 12:12:03;;;;;;;16.45;5.57;;;;;;;16.58;53.35;102612.44;5091511;28;20589;-69
2022/11/12 12:15:22;;;;;;;12.02;5.55;;;;;;;16.36;53.28;102611.00;5080203;28;20378;-67
2022/11/12 12:21:13;;;;;;;13.68;6.13;;;;;;;17.03;52.31;102602.78;5110434;27;20391;-68
2022/11/12 12:24:05;;;;;;;13.30;5.50;;;;;;;17.41;51.50;102598.97;5100087;28;20054;-67
2022/11/12 12:26:57;;;;;;;13.30;5.32;;;;;;;18.04;50.01;102602.47;5089190;28;20044;-68
2022/11/12 12:29:52;;;;;;;13.35;5.40;;;;;;;18.56;48.59;102599.72;5074994;28;20040;-62
2022/11/12 12:32:46;;;;;;;13.13;4.93;;;;;;;17.70;49.77;102592.50;5088881;28;20055;-59
2022/11/12 12:35:39;;;;;;;12.82;5.63;;;;;;;17.64;50.24;102595.78;5090095;28;20048;-59
2022/11/12 12:38:41;;;;;;;14.30;5.50;;;;;;;17.76;50.04;102593.72;5089033;28;20392;-59
2022/11/12 12:41:41;;;;;;;13.18;5.05;;;;;;;18.10;48.64;102587.56;5086131;28;20144;-63
2022/11/12 12:45:06;;;;;;;13.70;5.13;;;;;;;18.20;48.23;102577.56;5089680;28;20136;-63
2022/11/12 12:47:46;;;;;;;12.60;5.75;;;;;;;18.22;48.53;102580.94;5053354;28;20135;-64
2022/11/12 12:50:37;;;;;;;13.50;5.20;;;;;;;18.85;47.13;102576.16;5088144;28;20035;-65
2022/11/12 12:53:29;;;;;;;13.20;5.20;;;;;;;18.84;46.41;102572.63;5108429;28;20067;-64
2022/11/12 12:56:25;;;;;;;;;;;;;;;19.43;45.78;102582.44;5110390;28;20048;-65
2022/11/12 12:59:21;;;;;;;15.30;5.30;;;;;;;19.35;45.71;102583.28;5109558;28;20031;-65
2022/11/12 13:02:20;;;;;;;12.90;5.28;;;;;;;18.68;46.94;102584.16;5108105;28;20044;-64
2022/11/12 13:05:23;;;;;;;14.75;5.55;;;;;;;18.98;46.33;102579.22;5087669;28;20048;-69
2022/11/12 13:08:21;;;;;;;12.80;5.47;;;;;;;19.65;45.84;102579.09;5087809;28;20405;-69
2022/11/12 13:11:09;;;;;;;14.90;5.55;;;;;;;19.49;45.86;102585.31;5089162;28;20117;-69
2022/11/12 13:13:55;;;;;;;19.90;5.00;;;;;;;18.92;47.46;102566.44;5089461;28;20047;-70
2022/11/12 13:19:27;;;;;;;10.77;5.38;;;;;;;17.60;50.38;102579.16;5110897;27;20395;-70
2022/11/12 13:28:05;;;;;;;11.73;5.70;;;;;;;16.32;54.51;102569.44;5110439;27;20351;-69
2022/11/12 13:33:30;;;;;;;11.93;5.45;;;;;;;15.58;56.38;102578.19;5090295;27;20036;-69
2022/11/12 13:36:27;;;;;;;13.25;5.47;;;;;;;15.34;57.04;102571.44;5072419;28;20528;-69
2022/11/12 13:39:18;;;;;;;12.55;5.55;;;;;;;15.32;57.60;102562.72;5075651;28;20568;-68
2022/11/12 13:45:23;;;;;;;11.98;5.18;;;;;;;15.11;59.70;102557.50;5089919;28;20044;-68
2022/11/12 13:48:19;;;;;;;14.27;5.30;;;;;;;15.13;60.45;102555.53;4957470;28;20992;-67
2022/11/12 13:51:14;;;;;;;10.93;5.47;;;;;;;15.05;60.82;102561.56;5061100;28;20037;-68
2022/11/12 13:54:01;;;;;;;12.20;5.80;;;;;;;15.00;60.67;102558.47;5074772;28;20063;-68
2022/11/12 13:56:47;;;;;;;10.75;5.13;;;;;;;15.05;60.34;102558.06;5058184;28;20052;-67
2022/11/12 13:59:34;;;;;;;15.40;5.22;;;;;;;14.96;60.95;102557.91;5058108;28;20048;-68
2022/11/12 14:02:25;;;;;;;15.05;6.75;;;;;;;14.86;61.34;102554.41;5056555;28;20050;-68
2022/11/12 14:05:17;;;;;;;16.00;6.20;;;;;;;14.68;62.18;102550.69;5087970;28;20127;-68
2022/11/12 14:11:40;;;;;;;13.35;5.97;;;;;;;14.57;61.87;102541.81;5110813;27;20388;-67
2022/11/12 14:14:38;;;;;;;12.05;5.10;;;;;;;14.43;63.72;102535.97;5109482;28;20047;-69
2022/11/12 14:17:44;;;;;;;16.33;5.97;;;;;;;14.32;64.52;102537.75;5110034;28;20114;-67
2022/11/12 14:20:38;;;;;;;12.65;5.72;;;;;;;14.26;63.84;102534.78;5110499;28;20058;-67
2022/11/12 14:23:25;;;;;;;11.68;6.05;;;;;;;14.22;64.98;102534.19;5109202;28;20046;-67
2022/11/12 14:26:14;;;;;;;12.82;5.60;;;;;;;14.17;64.40;102531.09;5110519;28;20068;-67
2022/11/12 14:29:00;;;;;;;11.73;6.00;;;;;;;14.18;65.19;102530.94;5109148;28;20108;-67
2022/11/12 14:32:00;;;;;;;15.88;6.10;;;;;;;14.14;65.49;102526.88;5109335;28;20059;-67
2022/11/12 14:34:46;;;;;;;15.80;6.25;;;;;;;14.08;65.19;102523.88;5081205;28;20050;-67
2022/11/12 14:37:36;;;;;;;12.88;5.93;;;;;;;14.01;66.17;102513.75;5109035;28;20093;-67
2022/11/12 14:40:29;;;;;;;12.75;5.82;;;;;;;14.00;66.50;102522.72;5109796;28;20093;-67
2022/11/12 14:43:21;;;;;;;13.95;5.80;;;;;;;13.92;67.04;102514.56;5109317;28;20040;-67
2022/11/12 14:46:27;;;;;;;12.27;5.57;;;;;;;13.78;66.78;102507.75;5095385;28;20046;-68
2022/11/12 14:49:20;;;;;;;11.30;5.28;;;;;;;13.80;67.97;102519.13;4989524;28;20488;-68
2022/11/12 14:52:15;;;;;;;13.63;6.47;;;;;;;13.80;67.71;102511.13;5109516;28;20059;-67
2022/11/12 14:55:10;;;;;;;14.02;6.30;;;;;;;13.83;67.43;102518.03;5109705;28;20438;-67
2022/11/12 14:57:59;;;;;;;13.60;5.85;;;;;;;13.82;66.79;102509.19;5108362;28;20043;-67
2022/11/12 15:00:48;;;;;;;13.82;5.43;;;;;;;13.77;67.49;102505.19;5108834;28;20036;-67
2022/11/12 15:03:35;;;;;;;12.48;5.30;;;;;;;13.72;67.85;102508.28;5100360;28;20040;-67
2022/11/12 15:06:31;;;;;;;12.40;5.22;;;;;;;13.75;67.78;102509.81;5088811;28;20389;-67
2022/11/12 15:09:30;;;;;;;15.65;6.07;;;;;;;13.72;68.36;102510.09;5088991;28;20049;-67
2022/11/12 15:12:23;;;;;;;12.25;5.63;;;;;;;13.67;68.48;102502.47;5089446;28;20044;-67
2022/11/12 15:15:21;;;;;;;12.07;5.47;;;;;;;13.62;68.35;102497.56;5074303;28;20493;-67
2022/11/12 15:18:26;;;;;;;13.27;5.57;;;;;;;13.58;68.84;102501.44;5087991;28;20040;-67
2022/11/12 15:21:23;;;;;;;15.65;5.80;;;;;;;13.52;68.60;102493.97;5100161;28;20063;-67
2022/11/12 15:24:32;;;;;;;13.23;5.47;;;;;;;13.49;69.11;102496.91;5066850;28;20554;-67
2022/11/12 15:27:36;;;;;;;11.32;5.45;;;;;;;13.44;69.68;102483.09;5095513;28;20048;-67
2022/11/12 15:30:28;;;;;;;14.13;5.55;;;;;;;13.42;70.07;102488.59;5095700;28;20508;-67
2022/11/12 15:33:20;;;;;;;14.95;6.30;;;;;;;13.38;70.14;102489.81;5094465;28;20400;-67
2022/11/12 15:36:18;;;;;;;12.95;5.90;;;;;;;13.34;69.44;102484.88;5081022;28;20048;-68
2022/11/12 15:39:12;;;;;;;15.07;6.25;;;;;;;13.26;71.54;102485.47;5095088;28;20046;-68
2022/11/12 15:42:02;;;;;;;16.15;6.93;;;;;;;13.13;71.75;102479.50;5095816;28;20070;-67
2022/11/12 15:44:49;;;;;;;15.30;7.15;;;;;;;13.02;72.60;102477.72;5095340;28;20036;-68
2022/11/12 15:47:36;;;;;;;16.48;6.55;;;;;;;12.95;73.08;102479.22;5095441;28;20068;-68